createdAt,value
2022-09-16T00:00:43.728Z,11.60
2022-09-16T00:03:11.217Z,12.01
2022-09-16T00:05:48.833Z,12.07
2022-09-16T00:08:16.521Z,12.00
2022-09-16T00:10:43.921Z,11.77
2022-09-16T00:13:12.271Z,11.98
2022-09-16T00:15:45.635Z,12.10
2022-09-16T00:18:12.362Z,11.59
2022-09-16T00:20:45.043Z,11.38
2022-09-16T00:23:11.716Z,11.33
2022-09-16T00:25:38.333Z,11.44
2022-09-16T00:28:04.963Z,11.26
2022-09-16T00:30:31.557Z,11.31
2022-09-16T00:32:58.266Z,11.43
2022-09-16T00:35:24.842Z,11.71
2022-09-16T00:37:51.472Z,11.74
2022-09-16T00:40:18.189Z,11.78
2022-09-16T00:42:44.824Z,11.87
2022-09-16T00:45:17.968Z,11.55
2022-09-16T00:47:51.378Z,11.52
2022-09-16T00:50:30.205Z,11.50
2022-09-16T00:52:59.552Z,11.88
2022-09-16T00:55:37.150Z,11.78
2022-09-16T00:58:24.754Z,11.40
2022-09-16T01:00:54.111Z,11.86
2022-09-16T01:03:21.107Z,11.47
2022-09-16T01:05:49.041Z,11.58
2022-09-16T01:08:15.683Z,10.88
2022-09-16T01:10:43.005Z,10.91
2022-09-16T01:13:12.837Z,11.30
2022-09-16T01:16:00.541Z,11.37
2022-09-16T01:18:48.677Z,11.38
2022-09-16T01:21:47.483Z,11.27
2022-09-16T01:24:34.504Z,11.59
2022-09-16T01:27:46.109Z,11.54
2022-09-16T01:30:20.054Z,11.58
2022-09-16T01:33:01.366Z,11.39
2022-09-16T01:35:52.743Z,11.80
2022-09-16T01:38:37.878Z,11.90
2022-09-16T01:41:19.838Z,11.39
2022-09-16T01:44:12.543Z,11.24
2022-09-16T01:46:47.779Z,11.01
2022-09-16T01:49:20.238Z,11.14
2022-09-16T01:51:59.185Z,11.07
2022-09-16T01:55:06.862Z,11.45
2022-09-16T01:58:11.301Z,11.36
2022-09-16T02:00:42.745Z,11.57
2022-09-16T02:03:20.206Z,11.74
2022-09-16T02:05:53.829Z,11.58
2022-09-16T02:08:38.820Z,11.20
2022-09-16T02:11:09.806Z,10.91
2022-09-16T02:13:43.966Z,10.67
2022-09-16T02:16:26.890Z,10.61
2022-09-16T02:18:57.968Z,10.62
2022-09-16T02:21:27.623Z,10.73
2022-09-16T02:23:59.995Z,10.88
2022-09-16T02:26:36.946Z,10.65
2022-09-16T02:29:10.790Z,10.78
2022-09-16T02:31:39.118Z,10.74
2022-09-16T02:34:14.919Z,10.92
2022-09-16T02:36:45.657Z,10.68
2022-09-16T02:39:18.269Z,10.49
2022-09-16T02:41:47.117Z,10.31
2022-09-16T02:44:14.027Z,10.77
2022-09-16T02:47:06.896Z,10.63
2022-09-16T02:50:38.098Z,10.62
2022-09-16T02:53:24.778Z,10.67
2022-09-16T02:55:58.890Z,10.35
2022-09-16T02:58:25.549Z,10.27
2022-09-16T03:00:55.249Z,10.48
2022-09-16T03:03:22.409Z,10.41
2022-09-16T03:06:17.043Z,10.37
2022-09-16T03:08:45.241Z,10.37
2022-09-16T03:11:40.687Z,10.44
2022-09-16T03:14:30.558Z,10.14
2022-09-16T03:17:33.649Z,10.48
2022-09-16T03:20:18.837Z,10.22
2022-09-16T03:22:54.547Z,10.34
2022-09-16T03:25:27.113Z,10.51
2022-09-16T03:28:12.366Z,10.70
2022-09-16T03:30:50.261Z,10.66
2022-09-16T03:33:27.097Z,10.88
2022-09-16T03:35:59.895Z,10.85
2022-09-16T03:38:28.660Z,10.80
2022-09-16T03:40:55.607Z,10.98
2022-09-16T03:43:22.190Z,10.89
2022-09-16T03:45:48.992Z,10.80
2022-09-16T03:48:15.650Z,10.97
2022-09-16T03:50:42.316Z,10.81
2022-09-16T03:53:08.974Z,11.02
2022-09-16T03:55:35.608Z,11.07
2022-09-16T03:58:02.269Z,10.52
2022-09-16T04:00:29.204Z,10.89
2022-09-16T04:02:56.299Z,10.58
2022-09-16T04:05:23.006Z,10.63
2022-09-16T04:07:50.075Z,10.29
2022-09-16T04:10:17.016Z,10.65
2022-09-16T04:12:43.761Z,11.01
2022-09-16T04:15:10.771Z,10.79
2022-09-16T04:17:37.647Z,10.56
2022-09-16T04:20:05.922Z,10.81
2022-09-16T04:22:32.626Z,10.82
2022-09-16T04:24:59.272Z,10.75
2022-09-16T04:27:25.883Z,10.75
2022-09-16T04:29:52.522Z,11.07
2022-09-16T04:32:19.188Z,11.04
2022-09-16T04:34:45.929Z,11.24
2022-09-16T04:37:12.511Z,11.16
2022-09-16T04:39:39.212Z,11.24
2022-09-16T04:42:06.998Z,11.31
2022-09-16T04:44:35.095Z,11.26
2022-09-16T04:47:01.681Z,11.45
2022-09-16T04:49:28.214Z,11.24
2022-09-16T04:51:54.903Z,11.15
2022-09-16T04:54:21.566Z,11.19
2022-09-16T04:56:48.235Z,11.20
2022-09-16T04:59:15.192Z,11.09
2022-09-16T05:01:42.083Z,11.21
2022-09-16T05:04:12.934Z,11.31
2022-09-16T05:06:41.566Z,11.42
2022-09-16T05:09:10.460Z,10.92
2022-09-16T05:11:39.015Z,11.05
2022-09-16T05:14:17.237Z,11.51
2022-09-16T05:16:45.441Z,11.33
2022-09-16T05:19:14.439Z,10.87
2022-09-16T05:21:42.066Z,11.50
2022-09-16T05:24:11.526Z,11.72
2022-09-16T05:26:40.443Z,11.42
2022-09-16T05:29:11.149Z,11.42
2022-09-16T05:31:40.740Z,11.29
2022-09-16T05:34:11.356Z,11.37
2022-09-16T05:36:40.934Z,11.37
2022-09-16T05:41:48.998Z,11.63
2022-09-16T05:44:16.050Z,11.28
2022-09-16T05:46:43.921Z,11.02
2022-09-16T05:49:11.537Z,11.13
2022-09-16T05:51:39.451Z,11.29
2022-09-16T05:54:06.265Z,11.61
2022-09-16T05:56:33.308Z,11.65
2022-09-16T05:59:00.988Z,11.64
2022-09-16T06:01:33.093Z,11.26
2022-09-16T06:04:04.982Z,11.02
2022-09-16T06:06:36.901Z,11.52
2022-09-16T06:09:10.998Z,11.76
2022-09-16T06:11:41.661Z,12.01
2022-09-16T06:14:09.044Z,11.72
2022-09-16T06:16:42.749Z,12.11
2022-09-16T06:19:15.234Z,12.12
2022-09-16T06:21:45.562Z,12.00
2022-09-16T06:24:14.293Z,11.55
2022-09-16T06:26:45.642Z,11.88
2022-09-16T06:29:13.562Z,11.63
2022-09-16T06:31:40.722Z,11.67
2022-09-16T06:34:08.623Z,11.73
2022-09-16T06:36:42.721Z,11.26
2022-09-16T06:39:13.410Z,11.00
2022-09-16T06:41:40.096Z,11.00
2022-09-16T06:44:06.683Z,11.11
2022-09-16T06:46:33.455Z,11.45
2022-09-16T06:49:04.571Z,11.76
2022-09-16T06:51:33.108Z,11.58
2022-09-16T06:54:02.238Z,11.47
2022-09-16T06:56:30.284Z,11.56
2022-09-16T06:58:57.399Z,11.71
2022-09-16T07:01:29.740Z,11.49
2022-09-16T07:03:58.429Z,11.88
2022-09-16T07:06:45.233Z,11.71
2022-09-16T07:09:14.767Z,11.44
2022-09-16T07:11:41.507Z,11.54
2022-09-16T07:14:09.564Z,11.24
2022-09-16T07:16:36.141Z,11.38
2022-09-16T07:19:02.889Z,11.63
2022-09-16T07:21:30.737Z,11.54
2022-09-16T07:24:02.765Z,11.37
2022-09-16T07:26:35.229Z,11.46
2022-09-16T07:29:04.317Z,11.31
2022-09-16T07:31:33.864Z,11.46
2022-09-16T07:34:04.309Z,11.22
2022-09-16T07:36:38.792Z,10.91
2022-09-16T07:39:06.333Z,10.93
2022-09-16T07:41:38.460Z,10.87
2022-09-16T07:44:06.509Z,10.76
2022-09-16T07:46:35.486Z,11.05
2022-09-16T07:49:04.244Z,11.06
2022-09-16T07:51:31.493Z,11.19
2022-09-16T07:54:03.534Z,11.27
2022-09-16T07:56:35.260Z,11.29
2022-09-16T07:59:03.850Z,11.31
2022-09-16T08:01:33.417Z,11.18
2022-09-16T08:04:01.018Z,11.09
2022-09-16T08:06:30.623Z,10.96
2022-09-16T08:09:09.815Z,11.36
2022-09-16T08:11:49.755Z,11.35
2022-09-16T08:14:16.590Z,11.50
2022-09-16T08:16:46.639Z,11.66
2022-09-16T08:19:13.734Z,11.50
2022-09-16T08:21:40.357Z,11.54
2022-09-16T08:24:07.084Z,11.77
2022-09-16T08:26:33.684Z,11.35
2022-09-16T08:29:09.337Z,11.58
2022-09-16T08:31:37.533Z,11.54
2022-09-16T08:34:05.052Z,11.29
2022-09-16T08:36:37.539Z,11.87
2022-09-16T08:39:04.506Z,11.76
2022-09-16T08:41:37.045Z,11.86
2022-09-16T08:44:19.222Z,11.58
2022-09-16T08:46:56.035Z,11.72
2022-09-16T08:49:40.078Z,11.69
2022-09-16T08:52:14.465Z,12.25
2022-09-16T08:54:47.426Z,12.36
2022-09-16T08:57:22.394Z,11.83
2022-09-16T08:59:54.736Z,12.09
2022-09-16T09:02:38.804Z,12.06
2022-09-16T09:05:42.747Z,12.14
2022-09-16T09:08:30.715Z,12.59
2022-09-16T09:11:15.583Z,12.01
2022-09-16T09:14:12.589Z,12.57
2022-09-16T09:16:45.656Z,12.33
2022-09-16T09:19:56.062Z,12.85
2022-09-16T09:22:33.152Z,12.10
2022-09-16T09:25:39.623Z,12.51
2022-09-16T09:28:56.890Z,12.60
2022-09-16T09:31:35.033Z,12.07
2022-09-16T09:34:43.391Z,12.80
2022-09-16T09:37:27.152Z,12.27
2022-09-16T09:40:02.070Z,12.77
2022-09-16T09:42:43.672Z,12.40
2022-09-16T09:45:27.961Z,12.35
2022-09-16T09:48:03.605Z,12.27
2022-09-16T09:50:40.188Z,12.51
2022-09-16T09:53:07.084Z,12.17
2022-09-16T09:55:35.056Z,12.28
2022-09-16T09:58:24.253Z,12.55
2022-09-16T10:00:53.456Z,12.25
2022-09-16T10:03:20.359Z,12.62
2022-09-16T10:05:47.922Z,12.77
2022-09-16T10:08:17.680Z,12.26
2022-09-16T10:10:59.923Z,12.19
2022-09-16T10:13:29.850Z,12.48
2022-09-16T10:16:14.641Z,12.32
2022-09-16T10:18:42.410Z,12.13
2022-09-16T10:21:15.385Z,11.96
2022-09-16T10:23:53.011Z,12.19
2022-09-16T10:26:21.498Z,12.10
2022-09-16T10:29:16.019Z,12.13
2022-09-16T10:31:43.609Z,12.16
2022-09-16T10:34:36.103Z,11.99
2022-09-16T10:37:13.149Z,12.00
2022-09-16T10:39:43.359Z,12.04
2022-09-16T10:42:20.130Z,12.38
2022-09-16T10:44:48.334Z,12.43
2022-09-16T10:47:32.607Z,12.60
2022-09-16T10:50:05.722Z,12.80
2022-09-16T10:52:42.445Z,12.95
2022-09-16T10:55:35.353Z,13.61
2022-09-16T10:58:18.006Z,13.68
2022-09-16T11:01:14.249Z,13.61
2022-09-16T11:04:05.964Z,13.53
2022-09-16T11:07:04.564Z,14.05
2022-09-16T11:09:52.886Z,14.55
2022-09-16T11:12:44.364Z,14.57
2022-09-16T11:15:29.768Z,14.22
2022-09-16T11:18:14.820Z,14.21
2022-09-16T11:21:00.241Z,14.51
2022-09-16T11:24:02.758Z,15.17
2022-09-16T11:26:36.900Z,14.35
2022-09-16T11:29:18.524Z,14.52
2022-09-16T11:32:24.376Z,14.52
2022-09-16T11:35:05.073Z,14.78
2022-09-16T11:37:45.309Z,14.96
2022-09-16T11:40:47.832Z,14.61
2022-09-16T11:43:46.429Z,14.83
2022-09-16T11:46:43.723Z,15.10
2022-09-16T11:49:22.572Z,15.04
2022-09-16T11:52:09.407Z,15.13
2022-09-16T11:54:53.944Z,15.27
2022-09-16T11:57:31.124Z,15.59
2022-09-16T12:00:14.214Z,15.55
2022-09-16T12:02:58.451Z,15.13
2022-09-16T12:05:36.995Z,14.83
2022-09-16T12:08:12.965Z,14.94
2022-09-16T12:10:45.676Z,14.52
2022-09-16T12:13:21.361Z,14.68
2022-09-16T12:15:57.336Z,14.98
2022-09-16T12:18:43.087Z,15.14
2022-09-16T12:21:32.813Z,15.09
2022-09-16T12:24:11.881Z,15.17
2022-09-16T12:26:49.056Z,15.30
2022-09-16T12:29:20.197Z,15.17
2022-09-16T12:32:01.538Z,15.00
2022-09-16T12:34:37.654Z,15.70
2022-09-16T12:37:20.479Z,15.83
2022-09-16T12:39:50.067Z,15.43
2022-09-16T12:42:46.694Z,15.30
2022-09-16T12:45:30.433Z,14.94
2022-09-16T12:48:21.445Z,15.28
2022-09-16T12:54:51.154Z,15.83
2022-09-16T12:57:36.251Z,15.72
2022-09-16T13:00:12.241Z,15.47
2022-09-16T13:02:53.117Z,15.79
2022-09-16T13:05:40.201Z,16.05
2022-09-16T13:08:23.330Z,16.19
2022-09-16T13:11:28.424Z,16.48
2022-09-16T13:13:51.329Z,15.87
2022-09-16T13:16:38.433Z,15.92
2022-09-16T13:19:30.489Z,16.98
2022-09-16T13:22:17.471Z,16.98
2022-09-16T13:24:51.781Z,17.15
2022-09-16T13:27:34.593Z,16.90
2022-09-16T13:30:15.159Z,16.92
2022-09-16T13:32:58.508Z,17.36
2022-09-16T13:35:31.269Z,17.63
2022-09-16T13:38:01.834Z,17.77
2022-09-16T13:40:34.150Z,17.77
2022-09-16T13:43:13.413Z,16.85
2022-09-16T13:46:05.798Z,16.14
2022-09-16T13:48:56.448Z,15.18
2022-09-16T13:51:23.672Z,14.07
2022-09-16T13:53:52.404Z,13.49
2022-09-16T13:56:47.897Z,13.22
2022-09-16T13:59:38.218Z,13.08
2022-09-16T14:02:42.606Z,13.05
2022-09-16T14:05:43.072Z,12.86
2022-09-16T14:08:18.507Z,12.88
2022-09-16T14:10:48.292Z,12.77
2022-09-16T14:13:21.052Z,12.71
2022-09-16T14:15:54.338Z,12.70
2022-09-16T14:18:24.487Z,12.64
2022-09-16T14:21:01.406Z,12.57
2022-09-16T14:23:29.652Z,12.67
2022-09-16T14:25:56.381Z,12.70
2022-09-16T14:28:27.922Z,12.76
2022-09-16T14:30:57.261Z,12.78
2022-09-16T14:33:56.469Z,12.85
2022-09-16T14:36:27.104Z,12.99
2022-09-16T14:39:03.032Z,12.94
2022-09-16T14:42:02.738Z,12.92
2022-09-16T14:44:47.207Z,12.92
2022-09-16T14:47:49.685Z,12.86
2022-09-16T14:50:30.478Z,12.95
2022-09-16T14:52:59.518Z,12.97
2022-09-16T14:55:33.681Z,13.05
2022-09-16T14:58:00.747Z,12.73
2022-09-16T15:00:58.994Z,13.08
2022-09-16T15:03:30.145Z,13.22
2022-09-16T15:06:00.937Z,13.39
2022-09-16T15:08:42.569Z,13.43
2022-09-16T15:11:36.238Z,13.61
2022-09-16T15:14:09.194Z,13.61
2022-09-16T15:16:45.903Z,13.67
2022-09-16T15:19:28.753Z,13.64
2022-09-16T15:21:57.702Z,13.77
2022-09-16T15:24:28.852Z,13.67
2022-09-16T15:26:56.148Z,13.70
2022-09-16T15:29:22.675Z,13.42
2022-09-16T15:31:50.845Z,13.35
2022-09-16T15:34:23.348Z,13.51
2022-09-16T15:37:00.008Z,13.56
2022-09-16T15:39:37.662Z,13.54
2022-09-16T15:42:10.521Z,13.23
2022-09-16T15:44:43.230Z,13.51
2022-09-16T15:47:21.854Z,13.59
2022-09-16T15:50:05.350Z,13.59
2022-09-16T15:52:58.186Z,13.61
2022-09-16T15:55:49.727Z,13.60
2022-09-16T15:58:22.731Z,13.63
2022-09-16T16:01:04.519Z,13.73
2022-09-16T16:03:44.521Z,13.70
2022-09-16T16:06:12.548Z,13.71
2022-09-16T16:08:52.199Z,13.92
2022-09-16T16:11:25.619Z,14.04
2022-09-16T16:13:52.490Z,14.09
2022-09-16T16:16:22.639Z,14.05
2022-09-16T16:18:49.216Z,13.98
2022-09-16T16:21:17.141Z,14.18
2022-09-16T16:23:44.074Z,14.18
2022-09-16T16:26:14.098Z,14.00
2022-09-16T16:28:40.835Z,13.92
2022-09-16T16:31:18.363Z,14.10
2022-09-16T16:33:47.531Z,14.22
2022-09-16T16:36:19.084Z,14.37
2022-09-16T16:38:49.431Z,14.32
2022-09-16T16:41:23.448Z,14.32
2022-09-16T16:43:53.927Z,14.42
2022-09-16T16:46:20.705Z,14.27
2022-09-16T16:48:47.421Z,14.33
2022-09-16T16:51:16.855Z,14.33
2022-09-16T16:53:48.204Z,14.30
2022-09-16T16:56:15.737Z,14.41
2022-09-16T16:58:45.477Z,14.41
2022-09-16T17:01:14.949Z,14.51
2022-09-16T17:03:47.753Z,14.54
2022-09-16T17:06:14.433Z,14.44
2022-09-16T17:08:42.099Z,14.42
2022-09-16T17:11:10.152Z,14.44
2022-09-16T17:13:38.326Z,14.49
2022-09-16T17:16:05.557Z,14.47
2022-09-16T17:18:35.414Z,14.37
2022-09-16T17:21:11.449Z,14.28
2022-09-16T17:23:44.878Z,14.32
2022-09-16T17:26:18.577Z,14.30
2022-09-16T17:28:47.260Z,14.30
2022-09-16T17:31:20.406Z,13.88
2022-09-16T17:33:47.728Z,13.76
2022-09-16T17:36:24.082Z,13.70
2022-09-16T17:38:58.673Z,13.66
2022-09-16T17:41:29.060Z,13.57
2022-09-16T17:43:58.599Z,13.63
2022-09-16T17:46:35.241Z,13.74
2022-09-16T17:49:07.639Z,13.76
2022-09-16T17:51:38.073Z,13.60
2022-09-16T17:54:04.960Z,13.52
2022-09-16T17:56:34.164Z,13.53
2022-09-16T17:59:00.870Z,13.50
2022-09-16T18:01:30.878Z,13.45
2022-09-16T18:04:05.324Z,13.41
2022-09-16T18:06:36.326Z,13.38
2022-09-16T18:09:09.576Z,13.36
2022-09-16T18:11:42.058Z,13.34
2022-09-16T18:14:17.259Z,13.36
2022-09-16T18:16:47.812Z,13.38
2022-09-16T18:19:14.423Z,13.40
2022-09-16T18:21:40.976Z,13.46
2022-09-16T18:24:11.187Z,13.49
2022-09-16T18:26:38.409Z,13.47
2022-09-16T18:29:09.960Z,13.48
2022-09-16T18:31:41.844Z,13.52
2022-09-16T18:34:08.954Z,13.59
2022-09-16T18:36:37.518Z,13.58
2022-09-16T18:39:05.115Z,13.57
2022-09-16T18:41:36.398Z,13.64
2022-09-16T18:44:11.291Z,13.67
2022-09-16T18:46:38.821Z,13.65
2022-09-16T18:49:06.519Z,13.71
2022-09-16T18:51:38.721Z,13.74
2022-09-16T18:54:07.541Z,13.73
2022-09-16T18:56:35.869Z,13.74
2022-09-16T18:59:24.136Z,13.76
2022-09-16T19:01:52.972Z,13.74
2022-09-16T19:04:23.085Z,13.79
2022-09-16T19:06:57.033Z,13.80
2022-09-16T19:09:24.395Z,13.85
2022-09-16T19:11:57.881Z,13.84
2022-09-16T19:14:27.337Z,13.87
2022-09-16T19:16:54.519Z,13.88
2022-09-16T19:19:21.747Z,13.82
2022-09-16T19:21:48.788Z,13.81
2022-09-16T19:24:19.027Z,13.85
2022-09-16T19:26:51.291Z,13.84
2022-09-16T19:29:18.881Z,13.88
2022-09-16T19:31:48.040Z,13.86
2022-09-16T19:34:16.352Z,13.85
2022-09-16T19:36:43.437Z,13.84
2022-09-16T19:39:12.029Z,13.82
2022-09-16T19:41:39.620Z,13.81
2022-09-16T19:44:09.860Z,13.76
2022-09-16T19:46:37.907Z,13.76
2022-09-16T19:49:06.230Z,13.70
2022-09-16T19:51:33.154Z,13.73
2022-09-16T19:54:00.874Z,13.72
2022-09-16T19:56:33.047Z,13.69
2022-09-16T19:59:01.272Z,13.70
2022-09-16T20:01:30.550Z,13.66
2022-09-16T20:03:57.525Z,13.65
2022-09-16T20:06:34.833Z,13.63
2022-09-16T20:09:03.820Z,13.66
2022-09-16T20:11:32.951Z,13.62
2022-09-16T20:14:01.813Z,13.65
2022-09-16T20:16:31.222Z,13.66
2022-09-16T20:18:58.080Z,13.63
2022-09-16T20:21:26.635Z,13.62
2022-09-16T20:23:54.412Z,13.59
2022-09-16T20:26:22.432Z,13.52
2022-09-16T20:28:51.359Z,13.50
2022-09-16T20:31:24.043Z,13.51
2022-09-16T20:33:51.632Z,13.51
2022-09-16T20:36:21.300Z,13.50
2022-09-16T20:38:48.766Z,13.52
2022-09-16T20:41:19.793Z,13.49
2022-09-16T20:43:47.175Z,13.47
2022-09-16T20:46:16.864Z,13.45
2022-09-16T20:48:44.982Z,13.43
2022-09-16T20:51:14.420Z,13.39
2022-09-16T20:53:42.340Z,13.46
2022-09-16T20:56:14.672Z,13.43
2022-09-16T20:58:42.590Z,13.39
2022-09-16T21:01:14.879Z,13.38
2022-09-16T21:03:45.268Z,13.41
2022-09-16T21:06:14.594Z,13.32
2022-09-16T21:08:43.184Z,13.32
2022-09-16T21:11:15.503Z,13.34
2022-09-16T21:13:44.448Z,13.33
2022-09-16T21:16:14.669Z,13.32
2022-09-16T21:18:42.373Z,13.35
2022-09-16T21:21:13.444Z,13.37
2022-09-16T21:23:40.993Z,13.44
2022-09-16T21:26:13.562Z,13.48
2022-09-16T21:28:41.193Z,13.48
2022-09-16T21:31:13.802Z,13.43
2022-09-16T21:33:42.439Z,13.47
2022-09-16T21:36:14.147Z,13.44
2022-09-16T21:38:41.650Z,13.54
2022-09-16T21:41:14.708Z,13.56
2022-09-16T21:43:44.032Z,13.61
2022-09-16T21:46:13.133Z,13.65
2022-09-16T21:48:40.447Z,13.68
2022-09-16T21:51:10.240Z,13.66
2022-09-16T21:53:37.647Z,13.62
2022-09-16T21:56:06.099Z,13.59
2022-09-16T21:58:33.470Z,13.57
2022-09-16T22:01:09.641Z,13.60
2022-09-16T22:03:36.943Z,13.61
2022-09-16T22:06:04.911Z,13.62
2022-09-16T22:08:31.765Z,13.63
2022-09-16T22:11:07.719Z,13.60
2022-09-16T22:13:35.173Z,13.57
2022-09-16T22:16:02.226Z,13.51
2022-09-16T22:18:30.282Z,13.52
2022-09-16T22:21:03.938Z,13.52
2022-09-16T22:23:30.504Z,13.48
2022-09-16T22:25:57.005Z,13.49
2022-09-16T22:28:23.672Z,13.53
2022-09-16T22:30:50.253Z,13.55
2022-09-16T22:33:16.863Z,13.58
2022-09-16T22:35:46.549Z,13.52
2022-09-16T22:38:13.209Z,13.50
2022-09-16T22:40:39.779Z,13.48
2022-09-16T22:43:06.640Z,13.44
2022-09-16T22:45:33.226Z,13.39
2022-09-16T22:47:59.739Z,13.34
2022-09-16T22:50:26.499Z,13.26
2022-09-16T22:52:53.056Z,13.27
2022-09-16T22:55:19.746Z,13.26
2022-09-16T22:57:46.274Z,13.35
2022-09-16T23:00:13.377Z,13.40
2022-09-16T23:02:40.058Z,13.41
2022-09-16T23:05:07.404Z,13.37
2022-09-16T23:07:34.193Z,13.37
2022-09-16T23:10:00.745Z,13.39
2022-09-16T23:12:28.465Z,13.39
2022-09-16T23:14:55.060Z,13.38
2022-09-16T23:17:21.953Z,13.38
2022-09-16T23:19:48.543Z,13.36
2022-09-16T23:22:15.276Z,13.36
2022-09-16T23:24:41.975Z,13.30
2022-09-16T23:27:08.534Z,13.25
2022-09-16T23:29:35.102Z,13.21
2022-09-16T23:32:03.255Z,13.17
2022-09-16T23:34:29.921Z,13.16
2022-09-16T23:36:56.521Z,13.16
2022-09-16T23:39:23.115Z,13.14
2022-09-16T23:41:50.258Z,13.10
2022-09-16T23:44:17.240Z,13.12
2022-09-16T23:46:44.703Z,13.11
2022-09-16T23:49:11.494Z,13.08
2022-09-16T23:51:38.477Z,12.93
2022-09-16T23:54:05.117Z,12.90
2022-09-16T23:56:32.714Z,12.92
2022-09-16T23:59:00.827Z,12.93
